GLO1183 SBGL-SBSP
Flight info
| Callsign | GLO1183 |
|---|---|
| Flight time | 0h 51m |
| Altitude | 26000 |
| Route | NAXOP UZ45 IBDAL |
| Aircraft | B738/M-SDFGIKLORWXY/LB1 |
Departure
| Time | 2026-05-04 23:54 |
|---|---|
| Airport | Rio Galeão – Tom Jobim International Airport (SBGL) |
Arrival
| Time | 2026-05-05 00:45 |
|---|---|
| Airport | Congonhas–Deputado Freitas Nobre Airport (SBSP) |
| Time | Latitude | Longitude | Altitude | Speed | Heading |
|---|---|---|---|---|---|
| 2026-05-04 23:33 | -22.81041 | -43.25319 | 21 ft | 0 kts | 93° |
| 2026-05-04 23:47 | -22.81040 | -43.25333 | 23 ft | 2 kts | 93° |
| 2026-05-04 23:47 | -22.81039 | -43.25351 | 24 ft | 2 kts | 92° |
| 2026-05-04 23:48 | -22.81039 | -43.25369 | 24 ft | 2 kts | 86° |
| 2026-05-04 23:48 | -22.81045 | -43.25385 | 23 ft | 2 kts | 14° |
| 2026-05-04 23:48 | -22.81050 | -43.25386 | 23 ft | 0 kts | 3° |
| 2026-05-04 23:50 | -22.81045 | -43.25386 | 23 ft | 3 kts | 4° |
| 2026-05-04 23:50 | -22.81003 | -43.25382 | 21 ft | 10 kts | 359° |
| 2026-05-04 23:50 | -22.80942 | -43.25443 | 26 ft | 14 kts | 296° |
| 2026-05-04 23:51 | -22.80897 | -43.25538 | 27 ft | 16 kts | 298° |
| 2026-05-04 23:51 | -22.80800 | -43.25567 | 22 ft | 19 kts | 38° |
| 2026-05-04 23:51 | -22.80694 | -43.25484 | 23 ft | 18 kts | 34° |
| 2026-05-04 23:51 | -22.80591 | -43.25405 | 28 ft | 18 kts | 37° |
| 2026-05-04 23:52 | -22.80500 | -43.25374 | 28 ft | 13 kts | 331° |
| 2026-05-04 23:52 | -22.80421 | -43.25429 | 28 ft | 14 kts | 324° |
| 2026-05-04 23:52 | -22.80347 | -43.25487 | 27 ft | 13 kts | 327° |
| 2026-05-04 23:52 | -22.80255 | -43.25507 | 24 ft | 15 kts | 24° |
| 2026-05-04 23:53 | -22.80175 | -43.25448 | 24 ft | 14 kts | 61° |
| 2026-05-04 23:53 | -22.80167 | -43.25425 | 25 ft | 0 kts | 72° |
| 2026-05-04 23:53 | -22.80167 | -43.25424 | 25 ft | 1 kts | 72° |
| 2026-05-04 23:53 | -22.80132 | -43.25290 | 27 ft | 53 kts | 74° |
| 2026-05-04 23:54 | -22.79964 | -43.24645 | 31 ft | 122 kts | 74° |
| 2026-05-04 23:54 | -22.79694 | -43.23562 | 163 ft | 167 kts | 76° |
| 2026-05-04 23:54 | -22.79422 | -43.22325 | 871 ft | 175 kts | 78° |
| 2026-05-04 23:54 | -22.79116 | -43.21007 | 1563 ft | 192 kts | 75° |
| 2026-05-04 23:55 | -22.78765 | -43.19484 | 1862 ft | 223 kts | 75° |
| 2026-05-04 23:55 | -22.78389 | -43.17798 | 2450 ft | 234 kts | 75° |
| 2026-05-04 23:55 | -22.77631 | -43.14301 | 4157 ft | 245 kts | 76° |
| 2026-05-04 23:56 | -22.77239 | -43.12467 | 4998 ft | 254 kts | 76° |
| 2026-05-04 23:56 | -22.76839 | -43.10580 | 5872 ft | 259 kts | 77° |
| 2026-05-04 23:56 | -22.76434 | -43.08669 | 6776 ft | 263 kts | 77° |
| 2026-05-04 23:56 | -22.76020 | -43.06714 | 7623 ft | 267 kts | 77° |
| 2026-05-04 23:57 | -22.75716 | -43.04750 | 8449 ft | 271 kts | 93° |
| 2026-05-04 23:57 | -22.76206 | -43.02799 | 9315 ft | 269 kts | 124° |
| 2026-05-04 23:57 | -22.77474 | -43.01348 | 10218 ft | 266 kts | 146° |
| 2026-05-04 23:57 | -22.79052 | -43.00273 | 10988 ft | 270 kts | 152° |
| 2026-05-04 23:58 | -22.80673 | -42.99281 | 11765 ft | 273 kts | 153° |
| 2026-05-04 23:58 | -22.82334 | -42.98257 | 12580 ft | 277 kts | 152° |
| 2026-05-04 23:58 | -22.84040 | -42.97449 | 13324 ft | 278 kts | 171° |
| 2026-05-04 23:58 | -22.85958 | -42.97490 | 14031 ft | 281 kts | 196° |
| 2026-05-04 23:59 | -22.87768 | -42.98453 | 14243 ft | 304 kts | 217° |
| 2026-05-04 23:59 | -22.89495 | -42.99918 | 14424 ft | 327 kts | 220° |
| 2026-05-04 23:59 | -22.91321 | -43.01534 | 14665 ft | 347 kts | 220° |
| 2026-05-04 23:59 | -22.93216 | -43.03210 | 15222 ft | 354 kts | 220° |
| 2026-05-05 00:00 | -22.95143 | -43.04894 | 15932 ft | 357 kts | 220° |
| 2026-05-05 00:00 | -22.95795 | -43.05460 | 16176 ft | 358 kts | 220° |
| 2026-05-05 00:00 | -22.99054 | -43.08274 | 17363 ft | 363 kts | 221° |
| 2026-05-05 00:00 | -23.01037 | -43.09989 | 18024 ft | 366 kts | 221° |
| 2026-05-05 00:01 | -23.03041 | -43.11737 | 18643 ft | 370 kts | 222° |
| 2026-05-05 00:01 | -23.05052 | -43.13497 | 19203 ft | 373 kts | 221° |
| 2026-05-05 00:01 | -23.07084 | -43.15277 | 19784 ft | 376 kts | 221° |
| 2026-05-05 00:01 | -23.09090 | -43.17035 | 20401 ft | 377 kts | 221° |
| 2026-05-05 00:02 | -23.11105 | -43.18799 | 21152 ft | 375 kts | 221° |
| 2026-05-05 00:02 | -23.13126 | -43.20568 | 21971 ft | 372 kts | 221° |
| 2026-05-05 00:02 | -23.15136 | -43.22329 | 22746 ft | 370 kts | 221° |
| 2026-05-05 00:02 | -23.17135 | -43.24082 | 23472 ft | 369 kts | 221° |
| 2026-05-05 00:03 | -23.19133 | -43.25834 | 24154 ft | 368 kts | 221° |
| 2026-05-05 00:03 | -23.21122 | -43.27579 | 24834 ft | 364 kts | 221° |
| 2026-05-05 00:03 | -23.23060 | -43.29280 | 25519 ft | 361 kts | 222° |
| 2026-05-05 00:03 | -23.25020 | -43.31001 | 26001 ft | 365 kts | 222° |
| 2026-05-05 00:04 | -23.27017 | -43.32758 | 26208 ft | 375 kts | 222° |
| 2026-05-05 00:04 | -23.29085 | -43.34577 | 26206 ft | 388 kts | 221° |
| 2026-05-05 00:04 | -23.31215 | -43.36453 | 26215 ft | 399 kts | 223° |
| 2026-05-05 00:04 | -23.33108 | -43.38689 | 26212 ft | 406 kts | 238° |
| 2026-05-05 00:05 | -23.34358 | -43.41460 | 26214 ft | 413 kts | 253° |
| 2026-05-05 00:05 | -23.35088 | -43.44378 | 26213 ft | 420 kts | 256° |
| 2026-05-05 00:05 | -23.35757 | -43.47332 | 26195 ft | 419 kts | 257° |
| 2026-05-05 00:05 | -23.36439 | -43.50411 | 26196 ft | 417 kts | 257° |
| 2026-05-05 00:06 | -23.37121 | -43.53467 | 26196 ft | 416 kts | 256° |
| 2026-05-05 00:06 | -23.37813 | -43.56513 | 26190 ft | 415 kts | 256° |
| 2026-05-05 00:06 | -23.38509 | -43.59538 | 26181 ft | 404 kts | 256° |
| 2026-05-05 00:06 | -23.39185 | -43.62446 | 26177 ft | 386 kts | 256° |
| 2026-05-05 00:07 | -23.39832 | -43.65216 | 26179 ft | 370 kts | 256° |
| 2026-05-05 00:07 | -23.40453 | -43.67876 | 26179 ft | 355 kts | 256° |
| 2026-05-05 00:07 | -23.41050 | -43.70434 | 26183 ft | 346 kts | 256° |
| 2026-05-05 00:07 | -23.41644 | -43.72985 | 26205 ft | 349 kts | 256° |
| 2026-05-05 00:08 | -23.42243 | -43.75557 | 26210 ft | 352 kts | 256° |
| 2026-05-05 00:08 | -23.42846 | -43.78152 | 26204 ft | 355 kts | 256° |
| 2026-05-05 00:08 | -23.43452 | -43.80759 | 26200 ft | 356 kts | 256° |
| 2026-05-05 00:08 | -23.44060 | -43.83380 | 26200 ft | 357 kts | 256° |
| 2026-05-05 00:09 | -23.44668 | -43.86000 | 26194 ft | 357 kts | 256° |
| 2026-05-05 00:09 | -23.45277 | -43.88623 | 26196 ft | 357 kts | 256° |
| 2026-05-05 00:09 | -23.45882 | -43.91236 | 26188 ft | 356 kts | 256° |
| 2026-05-05 00:09 | -23.46480 | -43.93822 | 26189 ft | 355 kts | 256° |
| 2026-05-05 00:10 | -23.47069 | -43.96378 | 26189 ft | 354 kts | 256° |
| 2026-05-05 00:10 | -23.47667 | -43.98977 | 26192 ft | 353 kts | 256° |
| 2026-05-05 00:10 | -23.48264 | -44.01577 | 26191 ft | 353 kts | 256° |
| 2026-05-05 00:10 | -23.48858 | -44.04166 | 26187 ft | 352 kts | 256° |
| 2026-05-05 00:11 | -23.49441 | -44.06708 | 26193 ft | 351 kts | 256° |
| 2026-05-05 00:11 | -23.50036 | -44.09303 | 26184 ft | 351 kts | 256° |
| 2026-05-05 00:11 | -23.50628 | -44.11884 | 26189 ft | 351 kts | 256° |
| 2026-05-05 00:11 | -23.51211 | -44.14433 | 26189 ft | 351 kts | 256° |
| 2026-05-05 00:12 | -23.51802 | -44.17014 | 26189 ft | 351 kts | 256° |
| 2026-05-05 00:12 | -23.52396 | -44.19599 | 26192 ft | 352 kts | 256° |
| 2026-05-05 00:12 | -23.52997 | -44.22219 | 26189 ft | 352 kts | 256° |
| 2026-05-05 00:12 | -23.53591 | -44.24806 | 26187 ft | 353 kts | 256° |
| 2026-05-05 00:13 | -23.54179 | -44.27369 | 26188 ft | 353 kts | 256° |
| 2026-05-05 00:13 | -23.54773 | -44.29963 | 26185 ft | 353 kts | 256° |
| 2026-05-05 00:13 | -23.55369 | -44.32565 | 26191 ft | 354 kts | 256° |
| 2026-05-05 00:13 | -23.55964 | -44.35169 | 26184 ft | 354 kts | 256° |
| 2026-05-05 00:14 | -23.56559 | -44.37771 | 26195 ft | 354 kts | 256° |
| 2026-05-05 00:14 | -23.57154 | -44.40379 | 26182 ft | 354 kts | 256° |
| 2026-05-05 00:14 | -23.57747 | -44.42982 | 26188 ft | 354 kts | 256° |
| 2026-05-05 00:14 | -23.58341 | -44.45588 | 26183 ft | 354 kts | 256° |
| 2026-05-05 00:15 | -23.58935 | -44.48196 | 26179 ft | 354 kts | 256° |
| 2026-05-05 00:15 | -23.59327 | -44.49920 | 26182 ft | 354 kts | 256° |
| 2026-05-05 00:15 | -23.59919 | -44.52522 | 26181 ft | 354 kts | 256° |
| 2026-05-05 00:15 | -23.60509 | -44.55122 | 26177 ft | 353 kts | 256° |
| 2026-05-05 00:16 | -23.61099 | -44.57722 | 26182 ft | 353 kts | 256° |
| 2026-05-05 00:16 | -23.61689 | -44.60322 | 26183 ft | 353 kts | 256° |
| 2026-05-05 00:16 | -23.62278 | -44.62921 | 26180 ft | 353 kts | 256° |
| 2026-05-05 00:16 | -23.62865 | -44.65514 | 26179 ft | 352 kts | 256° |
| 2026-05-05 00:17 | -23.63452 | -44.68109 | 26182 ft | 352 kts | 256° |
| 2026-05-05 00:17 | -23.64039 | -44.70705 | 26179 ft | 352 kts | 256° |
| 2026-05-05 00:17 | -23.64625 | -44.73298 | 26175 ft | 352 kts | 256° |
| 2026-05-05 00:17 | -23.65210 | -44.75890 | 26179 ft | 352 kts | 256° |
| 2026-05-05 00:18 | -23.65794 | -44.78482 | 26184 ft | 352 kts | 256° |
| 2026-05-05 00:18 | -23.66378 | -44.81074 | 26173 ft | 352 kts | 256° |
| 2026-05-05 00:18 | -23.66960 | -44.83660 | 26181 ft | 351 kts | 256° |
| 2026-05-05 00:18 | -23.67543 | -44.86250 | 26184 ft | 351 kts | 256° |
| 2026-05-05 00:19 | -23.68117 | -44.88806 | 26179 ft | 351 kts | 256° |
| 2026-05-05 00:19 | -23.68697 | -44.91389 | 26174 ft | 351 kts | 256° |
| 2026-05-05 00:19 | -23.69279 | -44.93981 | 26184 ft | 351 kts | 256° |
| 2026-05-05 00:19 | -23.69860 | -44.96572 | 26177 ft | 351 kts | 256° |
| 2026-05-05 00:20 | -23.70440 | -44.99165 | 26177 ft | 351 kts | 256° |
| 2026-05-05 00:20 | -23.71019 | -45.01750 | 26185 ft | 351 kts | 256° |
| 2026-05-05 00:20 | -23.71598 | -45.04338 | 26184 ft | 351 kts | 256° |
| 2026-05-05 00:20 | -23.72176 | -45.06929 | 26182 ft | 351 kts | 256° |
| 2026-05-05 00:21 | -23.72747 | -45.09483 | 26178 ft | 351 kts | 256° |
| 2026-05-05 00:21 | -23.73324 | -45.12072 | 26184 ft | 351 kts | 256° |
| 2026-05-05 00:21 | -23.73900 | -45.14657 | 26183 ft | 351 kts | 256° |
| 2026-05-05 00:21 | -23.74476 | -45.17244 | 26183 ft | 351 kts | 256° |
| 2026-05-05 00:22 | -23.75050 | -45.19820 | 26181 ft | 351 kts | 256° |
| 2026-05-05 00:22 | -23.75625 | -45.22409 | 26181 ft | 350 kts | 256° |
| 2026-05-05 00:22 | -23.76201 | -45.24999 | 26183 ft | 350 kts | 256° |
| 2026-05-05 00:22 | -23.76775 | -45.27574 | 26182 ft | 350 kts | 256° |
| 2026-05-05 00:23 | -23.77351 | -45.30163 | 26194 ft | 350 kts | 256° |
| 2026-05-05 00:23 | -23.77926 | -45.32741 | 26196 ft | 360 kts | 256° |
| 2026-05-05 00:23 | -23.78516 | -45.35396 | 26177 ft | 356 kts | 256° |
| 2026-05-05 00:23 | -23.79093 | -45.38000 | 26170 ft | 350 kts | 256° |
| 2026-05-05 00:24 | -23.79658 | -45.40571 | 26171 ft | 348 kts | 257° |
| 2026-05-05 00:24 | -23.80004 | -45.43194 | 26190 ft | 351 kts | 263° |
| 2026-05-05 00:24 | -23.80160 | -45.45861 | 26175 ft | 349 kts | 266° |
| 2026-05-05 00:24 | -23.80256 | -45.48490 | 26179 ft | 345 kts | 266° |
| 2026-05-05 00:25 | -23.80341 | -45.50966 | 26167 ft | 343 kts | 266° |
| 2026-05-05 00:25 | -23.80439 | -45.53572 | 26180 ft | 344 kts | 266° |
| 2026-05-05 00:25 | -23.80550 | -45.56193 | 25986 ft | 346 kts | 265° |
| 2026-05-05 00:25 | -23.80668 | -45.58792 | 25743 ft | 341 kts | 265° |
| 2026-05-05 00:26 | -23.80789 | -45.61342 | 25383 ft | 340 kts | 265° |
| 2026-05-05 00:26 | -23.80916 | -45.63916 | 25025 ft | 338 kts | 265° |
| 2026-05-05 00:26 | -23.81043 | -45.66469 | 24662 ft | 336 kts | 265° |
| 2026-05-05 00:26 | -23.81171 | -45.69011 | 24286 ft | 335 kts | 265° |
| 2026-05-05 00:27 | -23.81299 | -45.71552 | 23909 ft | 334 kts | 265° |
| 2026-05-05 00:27 | -23.81427 | -45.74089 | 23494 ft | 334 kts | 265° |
| 2026-05-05 00:27 | -23.81553 | -45.76615 | 23085 ft | 332 kts | 265° |
| 2026-05-05 00:27 | -23.81679 | -45.79124 | 22695 ft | 330 kts | 265° |
| 2026-05-05 00:28 | -23.81803 | -45.81615 | 22319 ft | 328 kts | 265° |
| 2026-05-05 00:28 | -23.81926 | -45.84096 | 21951 ft | 326 kts | 265° |
| 2026-05-05 00:28 | -23.82048 | -45.86556 | 21589 ft | 324 kts | 265° |
| 2026-05-05 00:28 | -23.82169 | -45.89002 | 21228 ft | 322 kts | 265° |
| 2026-05-05 00:29 | -23.82289 | -45.91434 | 20872 ft | 320 kts | 265° |
| 2026-05-05 00:29 | -23.82406 | -45.93817 | 20528 ft | 319 kts | 265° |
| 2026-05-05 00:29 | -23.82524 | -45.96237 | 20176 ft | 317 kts | 265° |
| 2026-05-05 00:29 | -23.82641 | -45.98640 | 19825 ft | 316 kts | 265° |
| 2026-05-05 00:30 | -23.82758 | -46.01041 | 19474 ft | 315 kts | 266° |
| 2026-05-05 00:30 | -23.82874 | -46.03432 | 19110 ft | 315 kts | 266° |
| 2026-05-05 00:30 | -23.82990 | -46.05823 | 18758 ft | 315 kts | 266° |
| 2026-05-05 00:30 | -23.83103 | -46.08180 | 18401 ft | 315 kts | 266° |
| 2026-05-05 00:31 | -23.83217 | -46.10561 | 18015 ft | 313 kts | 266° |
| 2026-05-05 00:31 | -23.83331 | -46.12936 | 17645 ft | 312 kts | 266° |
| 2026-05-05 00:31 | -23.83444 | -46.15298 | 17288 ft | 310 kts | 266° |
| 2026-05-05 00:31 | -23.83556 | -46.17649 | 16945 ft | 309 kts | 266° |
| 2026-05-05 00:32 | -23.83666 | -46.19984 | 16597 ft | 307 kts | 266° |
| 2026-05-05 00:32 | -23.83777 | -46.22316 | 16201 ft | 307 kts | 266° |
| 2026-05-05 00:32 | -23.83887 | -46.24641 | 15852 ft | 306 kts | 266° |
| 2026-05-05 00:32 | -23.83997 | -46.26961 | 15507 ft | 306 kts | 266° |
| 2026-05-05 00:33 | -23.84107 | -46.29283 | 15169 ft | 305 kts | 266° |
| 2026-05-05 00:33 | -23.84215 | -46.31562 | 14839 ft | 304 kts | 266° |
| 2026-05-05 00:33 | -23.84324 | -46.33862 | 14504 ft | 303 kts | 266° |
| 2026-05-05 00:33 | -23.84431 | -46.36160 | 14173 ft | 302 kts | 266° |
| 2026-05-05 00:34 | -23.84539 | -46.38454 | 13830 ft | 302 kts | 266° |
| 2026-05-05 00:34 | -23.84647 | -46.40770 | 13461 ft | 301 kts | 266° |
| 2026-05-05 00:34 | -23.84701 | -46.41949 | 13287 ft | 300 kts | 266° |
| 2026-05-05 00:34 | -23.84806 | -46.44219 | 13119 ft | 293 kts | 266° |
| 2026-05-05 00:35 | -23.84908 | -46.46425 | 13106 ft | 287 kts | 266° |
| 2026-05-05 00:35 | -23.85007 | -46.48566 | 13092 ft | 277 kts | 266° |
| 2026-05-05 00:35 | -23.85101 | -46.50618 | 13093 ft | 264 kts | 266° |
| 2026-05-05 00:35 | -23.85191 | -46.52575 | 13093 ft | 251 kts | 266° |
| 2026-05-05 00:36 | -23.85275 | -46.54426 | 13094 ft | 238 kts | 266° |
| 2026-05-05 00:36 | -23.85360 | -46.56275 | 13142 ft | 255 kts | 266° |
| 2026-05-05 00:36 | -23.85454 | -46.58300 | 12956 ft | 286 kts | 266° |
| 2026-05-05 00:36 | -23.85472 | -46.60509 | 12680 ft | 295 kts | 277° |
| 2026-05-05 00:37 | -23.84765 | -46.62604 | 12325 ft | 298 kts | 301° |
| 2026-05-05 00:37 | -23.83343 | -46.64248 | 11932 ft | 300 kts | 322° |
| 2026-05-05 00:37 | -23.81590 | -46.65488 | 11569 ft | 299 kts | 326° |
| 2026-05-05 00:37 | -23.79827 | -46.66682 | 11189 ft | 298 kts | 326° |
| 2026-05-05 00:38 | -23.78549 | -46.67553 | 10912 ft | 297 kts | 326° |
| 2026-05-05 00:38 | -23.76806 | -46.68746 | 10547 ft | 296 kts | 326° |
| 2026-05-05 00:38 | -23.75064 | -46.69948 | 10092 ft | 298 kts | 326° |
| 2026-05-05 00:38 | -23.73311 | -46.71162 | 9734 ft | 292 kts | 326° |
| 2026-05-05 00:39 | -23.71646 | -46.72315 | 9574 ft | 277 kts | 326° |
| 2026-05-05 00:39 | -23.70038 | -46.73430 | 9163 ft | 272 kts | 325° |
| 2026-05-05 00:39 | -23.68442 | -46.74538 | 8680 ft | 271 kts | 325° |
| 2026-05-05 00:39 | -23.66864 | -46.75632 | 8316 ft | 267 kts | 325° |
| 2026-05-05 00:40 | -23.65297 | -46.76718 | 8016 ft | 266 kts | 325° |
| 2026-05-05 00:40 | -23.63755 | -46.77787 | 7731 ft | 266 kts | 325° |
| 2026-05-05 00:40 | -23.62181 | -46.78878 | 7230 ft | 270 kts | 325° |
| 2026-05-05 00:40 | -23.60609 | -46.79966 | 6857 ft | 264 kts | 325° |
| 2026-05-05 00:41 | -23.59033 | -46.80950 | 6544 ft | 259 kts | 338° |
| 2026-05-05 00:41 | -23.57267 | -46.81165 | 6231 ft | 256 kts | 7° |
| 2026-05-05 00:41 | -23.55624 | -46.80496 | 5951 ft | 252 kts | 32° |
| 2026-05-05 00:41 | -23.54373 | -46.79198 | 5660 ft | 247 kts | 52° |
| 2026-05-05 00:42 | -23.53426 | -46.77662 | 5401 ft | 241 kts | 57° |
| 2026-05-05 00:42 | -23.52549 | -46.76134 | 5135 ft | 235 kts | 57° |
| 2026-05-05 00:42 | -23.51900 | -46.74548 | 4871 ft | 231 kts | 83° |
| 2026-05-05 00:42 | -23.52224 | -46.72917 | 4625 ft | 217 kts | 126° |
| 2026-05-05 00:43 | -23.53329 | -46.71902 | 4439 ft | 201 kts | 147° |
| 2026-05-05 00:43 | -23.54495 | -46.71137 | 4208 ft | 189 kts | 148° |
| 2026-05-05 00:43 | -23.55581 | -46.70432 | 4043 ft | 174 kts | 148° |
| 2026-05-05 00:43 | -23.56593 | -46.69778 | 4006 ft | 163 kts | 148° |
| 2026-05-05 00:44 | -23.57554 | -46.69191 | 3907 ft | 154 kts | 148° |
| 2026-05-05 00:44 | -23.58429 | -46.68596 | 3660 ft | 145 kts | 145° |
| 2026-05-05 00:44 | -23.59267 | -46.68010 | 3434 ft | 143 kts | 146° |
| 2026-05-05 00:44 | -23.60108 | -46.67426 | 3204 ft | 143 kts | 146° |
| 2026-05-05 00:45 | -23.60925 | -46.66862 | 2965 ft | 141 kts | 147° |
| 2026-05-05 00:45 | -23.61724 | -46.66301 | 2736 ft | 130 kts | 148° |
| 2026-05-05 00:45 | -23.62469 | -46.65784 | 2605 ft | 120 kts | 148° |
| 2026-05-05 00:45 | -23.62933 | -46.65464 | 2608 ft | 39 kts | 148° |
| 2026-05-05 00:46 | -23.63090 | -46.65368 | 2609 ft | 18 kts | 173° |
| 2026-05-05 00:46 | -23.63175 | -46.65432 | 2602 ft | 12 kts | 287° |
| 2026-05-05 00:46 | -23.63103 | -46.65485 | 2601 ft | 13 kts | 333° |
| 2026-05-05 00:46 | -23.63021 | -46.65521 | 2602 ft | 13 kts | 346° |
| 2026-05-05 00:47 | -23.62944 | -46.65565 | 2602 ft | 12 kts | 328° |
| 2026-05-05 00:47 | -23.62893 | -46.65607 | 2601 ft | 7 kts | 304° |
| 2026-05-05 00:47 | -23.62905 | -46.65657 | 2600 ft | 8 kts | 236° |
| 2026-05-05 00:47 | -23.62934 | -46.65705 | 2600 ft | 7 kts | 238° |
| 2026-05-05 00:48 | -23.62943 | -46.65754 | 2600 ft | 7 kts | 303° |
| 2026-05-05 00:48 | -23.62934 | -46.65766 | 2600 ft | 0 kts | 318° |
| 2026-05-05 00:48 | -23.62929 | -46.65770 | 2600 ft | 3 kts | 325° |
| 2026-05-05 00:48 | -23.62925 | -46.65773 | 2600 ft | 0 kts | 326° |
| 2026-05-05 00:49 | -23.62923 | -46.65774 | 2600 ft | 0 kts | 327° |